Terminal Aerodrome Forecast
Issued by NWS Columbia, SC

Home | Current Version | Previous Version | Text Only | Print | Product List | Glossary On
Versions: 1 2 3 4 5 6 7 8 9 10 11 12 13 14 15 16 17 18 19 20 21 22 23 24 25 26 27 28 29 30 31 32 33
153
FTUS42 KCAE 240855 AAA
TAFCAE
TAF AMD
KCAE 240855Z 2409/2506 02006KT 5SM SHRA OVC006
      TEMPO 2409/2411 2SM SHRA
     FM241200 04007KT P6SM VCSH OVC008
     FM241500 07008KT 4SM SHRA VCTS BKN012CB
      TEMPO 2417/2421 +TSRA
     FM250200 33007KT 6SM -SHRA OVC008=

USA.gov is the U.S. government's official web portal to all federal, state and local government web resources and services.